createdAt,value
2023-05-21T00:00:19.867Z,76.10
2023-05-21T00:02:31.127Z,76.00
2023-05-21T00:04:38.623Z,75.60
2023-05-21T00:06:46.158Z,75.50
2023-05-21T00:08:53.851Z,75.40
2023-05-21T00:11:03.182Z,75.10
2023-05-21T00:13:11.853Z,74.60
2023-05-21T00:15:19.803Z,74.70
2023-05-21T00:17:27.360Z,74.90
2023-05-21T00:19:35.861Z,74.50
2023-05-21T00:21:43.191Z,73.40
2023-05-21T00:23:50.943Z,72.60
2023-05-21T00:25:58.472Z,72.00
2023-05-21T00:28:08.331Z,71.60
2023-05-21T00:30:15.911Z,71.20
2023-05-21T00:32:23.545Z,71.10
2023-05-21T00:34:31.058Z,70.60
2023-05-21T00:36:39.152Z,70.70
2023-05-21T00:38:46.961Z,70.50
2023-05-21T00:40:54.835Z,70.30
2023-05-21T00:43:02.181Z,69.90
2023-05-21T00:45:12.528Z,69.20
2023-05-21T00:47:20.559Z,68.50
2023-05-21T00:49:28.325Z,68.20
2023-05-21T00:51:35.759Z,68.30
2023-05-21T00:53:44.171Z,68.10
2023-05-21T00:55:51.810Z,67.80
2023-05-21T00:57:59.146Z,66.80
2023-05-21T01:00:08.377Z,66.80
2023-05-21T01:02:19.252Z,66.70
2023-05-21T01:04:27.401Z,66.70
2023-05-21T01:06:36.385Z,66.60
2023-05-21T01:08:44.135Z,66.50
2023-05-21T01:10:51.878Z,66.30
2023-05-21T01:13:00.746Z,66.00
2023-05-21T01:15:09.784Z,65.80
2023-05-21T01:17:19.516Z,65.20
2023-05-21T01:19:28.454Z,64.90
2023-05-21T01:21:38.579Z,64.40
2023-05-21T01:23:48.059Z,64.00
2023-05-21T01:25:55.496Z,64.20
2023-05-21T01:28:03.095Z,64.00
2023-05-21T01:30:11.960Z,63.80
2023-05-21T01:32:29.609Z,64.00
2023-05-21T01:34:44.044Z,63.80
2023-05-21T01:36:56.342Z,63.60
2023-05-21T01:39:11.255Z,63.40
2023-05-21T01:41:21.413Z,63.30
2023-05-21T01:43:31.203Z,62.90
2023-05-21T01:45:41.829Z,62.80
2023-05-21T01:47:52.670Z,62.50
2023-05-21T01:50:00.804Z,61.80
2023-05-21T01:52:08.745Z,61.60
2023-05-21T01:54:17.781Z,61.60
2023-05-21T01:56:27.144Z,61.30
2023-05-21T01:58:34.783Z,60.80
2023-05-21T02:00:42.943Z,60.80
2023-05-21T02:02:50.419Z,60.60
2023-05-21T02:04:58.221Z,60.20
2023-05-21T02:07:05.982Z,59.80
2023-05-21T02:09:13.760Z,59.60
2023-05-21T02:11:23.864Z,59.60
2023-05-21T02:13:31.555Z,59.70
2023-05-21T02:15:39.058Z,59.50
2023-05-21T02:17:46.646Z,58.70
2023-05-21T02:19:54.086Z,59.20
2023-05-21T02:22:01.846Z,59.00
2023-05-21T02:24:09.665Z,58.00
2023-05-21T02:26:18.644Z,58.60
2023-05-21T02:28:27.942Z,58.50
2023-05-21T02:30:35.672Z,58.30
2023-05-21T02:32:43.849Z,57.50
2023-05-21T02:34:51.265Z,56.80
2023-05-21T02:37:00.125Z,57.00
2023-05-21T02:39:07.826Z,57.50
2023-05-21T02:41:15.731Z,56.80
2023-05-21T02:43:22.854Z,56.30
2023-05-21T02:45:33.402Z,56.00
2023-05-21T02:47:41.839Z,56.10
2023-05-21T02:49:49.571Z,55.90
2023-05-21T02:51:56.806Z,55.80
2023-05-21T02:54:04.503Z,56.30
2023-05-21T02:56:13.737Z,55.10
2023-05-21T02:58:21.318Z,54.60
2023-05-21T03:00:29.010Z,53.80
2023-05-21T03:02:38.557Z,53.80
2023-05-21T03:04:47.108Z,53.80
2023-05-21T03:06:56.138Z,53.80
2023-05-21T03:09:03.577Z,52.40
2023-05-21T03:11:11.131Z,52.00
2023-05-21T03:13:18.269Z,52.40
2023-05-21T03:15:26.348Z,52.60
2023-05-21T03:17:33.503Z,52.40
2023-05-21T03:19:42.963Z,52.70
2023-05-21T03:21:50.449Z,52.20
2023-05-21T03:23:59.783Z,52.40
2023-05-21T03:26:07.072Z,52.50
2023-05-21T03:28:14.557Z,52.50
2023-05-21T03:30:24.763Z,52.60
2023-05-21T03:32:55.680Z,52.30
2023-05-21T03:35:04.731Z,51.00
2023-05-21T03:37:12.222Z,51.60
2023-05-21T03:39:20.159Z,51.40
2023-05-21T03:41:27.855Z,50.70
2023-05-21T03:43:41.027Z,51.20
2023-05-21T03:45:48.688Z,51.30
2023-05-21T03:48:14.233Z,51.00
2023-05-21T03:50:23.510Z,50.00
2023-05-21T03:52:30.902Z,50.30
2023-05-21T03:54:38.897Z,49.50
2023-05-21T03:56:48.597Z,50.00
2023-05-21T03:58:56.148Z,50.30
2023-05-21T04:01:04.083Z,49.90
2023-05-21T04:03:13.012Z,50.10
2023-05-21T04:05:22.177Z,50.00
2023-05-21T04:07:31.213Z,49.90
2023-05-21T04:09:38.698Z,49.80
2023-05-21T04:11:46.331Z,49.20
2023-05-21T04:13:53.628Z,48.40
2023-05-21T04:16:01.179Z,48.20
2023-05-21T04:18:09.129Z,47.00
2023-05-21T04:20:18.645Z,46.50
2023-05-21T04:22:28.393Z,47.50
2023-05-21T04:24:35.831Z,48.00
2023-05-21T04:26:57.243Z,46.90
2023-05-21T04:29:06.162Z,47.40
2023-05-21T04:31:14.171Z,47.10
2023-05-21T04:33:21.660Z,46.20
2023-05-21T04:35:29.061Z,46.80
2023-05-21T04:37:38.277Z,46.40
2023-05-21T04:39:45.508Z,45.90
2023-05-21T04:41:55.864Z,46.20
2023-05-21T04:44:03.297Z,46.40
2023-05-21T04:46:13.079Z,45.80
2023-05-21T04:48:21.649Z,45.80
2023-05-21T04:50:31.852Z,46.10
2023-05-21T04:52:41.363Z,45.70
2023-05-21T04:54:49.092Z,46.00
2023-05-21T04:56:57.134Z,46.00
2023-05-21T04:59:05.557Z,45.60
2023-05-21T05:01:15.715Z,46.00
2023-05-21T05:03:23.326Z,46.10
2023-05-21T05:05:30.680Z,46.60
2023-05-21T05:07:39.919Z,46.40
2023-05-21T05:09:48.116Z,45.50
2023-05-21T05:11:55.408Z,45.50
2023-05-21T05:14:03.092Z,46.20
2023-05-21T05:16:10.957Z,46.20
2023-05-21T05:18:19.293Z,46.40
2023-05-21T05:20:26.737Z,46.30
2023-05-21T05:22:34.323Z,46.40
2023-05-21T05:24:43.456Z,46.30
2023-05-21T05:26:50.896Z,45.80
2023-05-21T05:28:58.586Z,44.80
2023-05-21T05:31:06.098Z,43.70
2023-05-21T05:33:14.903Z,44.50
2023-05-21T05:35:22.642Z,45.30
2023-05-21T05:37:30.383Z,45.50
2023-05-21T05:39:37.717Z,45.30
2023-05-21T05:41:47.203Z,45.20
2023-05-21T05:43:55.311Z,45.10
2023-05-21T05:46:06.347Z,44.60
2023-05-21T05:48:14.232Z,43.70
2023-05-21T05:50:22.339Z,43.80
2023-05-21T05:52:30.288Z,44.20
2023-05-21T05:54:38.482Z,45.20
2023-05-21T05:56:47.464Z,44.70
2023-05-21T05:58:55.265Z,44.80
2023-05-21T06:01:02.447Z,45.10
2023-05-21T06:03:10.195Z,44.50
2023-05-21T06:05:17.988Z,43.70
2023-05-21T06:07:25.671Z,43.40
2023-05-21T06:09:32.803Z,43.30
2023-05-21T06:11:40.346Z,43.00
2023-05-21T06:13:49.363Z,43.20
2023-05-21T06:15:58.212Z,43.10
2023-05-21T06:18:05.725Z,43.30
2023-05-21T06:20:14.439Z,43.60
2023-05-21T06:22:23.065Z,43.80
2023-05-21T06:24:32.347Z,43.90
2023-05-21T06:26:40.491Z,43.20
2023-05-21T06:28:49.927Z,43.50
2023-05-21T06:30:57.462Z,43.70
2023-05-21T06:33:06.236Z,43.80
2023-05-21T06:35:13.770Z,44.40
2023-05-21T06:37:26.439Z,44.40
2023-05-21T06:39:34.901Z,43.90
2023-05-21T06:41:43.316Z,43.70
2023-05-21T06:44:21.057Z,43.60
2023-05-21T06:46:46.996Z,43.90
2023-05-21T06:48:54.411Z,43.60
2023-05-21T06:51:02.000Z,43.90
2023-05-21T06:53:09.629Z,44.30
2023-05-21T06:55:17.700Z,44.10
2023-05-21T06:57:53.148Z,43.90
2023-05-21T07:00:02.805Z,43.40
2023-05-21T07:02:14.331Z,43.20
2023-05-21T07:04:22.981Z,43.40
2023-05-21T07:06:30.638Z,43.60
2023-05-21T07:08:38.163Z,43.20
2023-05-21T07:10:45.651Z,43.50
2023-05-21T07:12:53.647Z,43.60
2023-05-21T07:15:03.292Z,44.00
2023-05-21T07:17:11.077Z,44.20
2023-05-21T07:19:18.918Z,43.80
2023-05-21T07:21:26.690Z,43.70
2023-05-21T07:23:34.320Z,43.80
2023-05-21T07:25:42.276Z,43.90
2023-05-21T07:27:49.617Z,44.40
2023-05-21T07:29:57.139Z,44.50
2023-05-21T07:32:06.782Z,44.70
2023-05-21T07:34:15.911Z,45.00
2023-05-21T07:36:23.193Z,45.20
2023-05-21T07:38:32.778Z,45.50
2023-05-21T07:40:40.289Z,45.30
2023-05-21T07:42:47.965Z,45.10
2023-05-21T07:44:58.631Z,44.80
2023-05-21T07:47:09.446Z,44.40
2023-05-21T07:49:17.877Z,44.90
2023-05-21T07:51:28.069Z,45.30
2023-05-21T07:53:35.548Z,45.80
2023-05-21T07:55:48.986Z,45.90
2023-05-21T07:58:00.923Z,45.50
2023-05-21T08:00:15.430Z,45.40
2023-05-21T08:02:24.451Z,45.30
2023-05-21T08:04:32.765Z,45.50
2023-05-21T08:06:41.220Z,45.20
2023-05-21T08:08:48.763Z,45.50
2023-05-21T08:10:56.609Z,46.20
2023-05-21T08:13:06.560Z,46.10
2023-05-21T08:15:14.561Z,46.70
2023-05-21T08:17:25.986Z,47.90
2023-05-21T08:19:33.671Z,47.10
2023-05-21T08:21:41.578Z,46.90
2023-05-21T08:23:51.168Z,46.40
2023-05-21T08:25:58.964Z,46.80
2023-05-21T08:28:06.603Z,46.30
2023-05-21T08:30:14.510Z,45.80
2023-05-21T08:32:21.827Z,45.20
2023-05-21T08:34:31.171Z,46.20
2023-05-21T08:36:58.428Z,45.70
2023-05-21T08:39:31.367Z,45.00
2023-05-21T08:41:40.487Z,45.80
2023-05-21T08:43:50.391Z,45.30
2023-05-21T08:46:00.212Z,44.70
2023-05-21T08:48:14.496Z,44.80
2023-05-21T08:50:24.371Z,44.40
2023-05-21T08:52:31.864Z,44.70
2023-05-21T08:54:40.987Z,44.50
2023-05-21T08:56:50.479Z,44.60
2023-05-21T08:58:59.012Z,44.80
2023-05-21T09:01:09.442Z,44.90
2023-05-21T09:03:19.562Z,44.50
2023-05-21T09:05:30.681Z,44.10
2023-05-21T09:07:46.955Z,43.80
2023-05-21T09:10:17.174Z,44.70
2023-05-21T09:12:26.222Z,44.70
2023-05-21T09:14:34.495Z,44.40
2023-05-21T09:17:04.872Z,44.30
2023-05-21T09:19:12.796Z,44.20
2023-05-21T09:21:33.297Z,44.30
2023-05-21T09:23:47.897Z,45.00
2023-05-21T09:25:55.590Z,44.60
2023-05-21T09:28:16.080Z,44.30
2023-05-21T09:30:25.470Z,44.60
2023-05-21T09:32:35.348Z,44.90
2023-05-21T09:34:42.591Z,44.90
2023-05-21T09:36:53.291Z,44.60
2023-05-21T09:39:01.294Z,44.70
2023-05-21T09:41:09.601Z,44.50
2023-05-21T09:43:18.835Z,44.50
2023-05-21T09:45:27.095Z,44.60
2023-05-21T09:47:36.825Z,43.80
2023-05-21T09:49:47.357Z,43.50
2023-05-21T09:51:59.753Z,44.00
2023-05-21T09:54:07.950Z,44.40
2023-05-21T09:56:15.344Z,44.60
2023-05-21T09:58:22.830Z,45.10
2023-05-21T10:00:32.262Z,45.30
2023-05-21T10:02:42.489Z,45.40
2023-05-21T10:04:53.125Z,45.60
2023-05-21T10:07:03.890Z,45.50
2023-05-21T10:09:13.495Z,45.60
2023-05-21T10:11:22.493Z,45.80
2023-05-21T10:13:30.106Z,45.70
2023-05-21T10:15:41.685Z,45.70
2023-05-21T10:17:50.417Z,45.70
2023-05-21T10:19:59.939Z,45.70
2023-05-21T10:22:09.731Z,45.60
2023-05-21T10:24:18.703Z,45.80
2023-05-21T10:26:26.807Z,46.10
2023-05-21T10:28:36.650Z,45.90
2023-05-21T10:30:45.369Z,45.80
2023-05-21T10:32:53.185Z,45.60
2023-05-21T10:35:02.041Z,45.50
2023-05-21T10:37:12.763Z,45.70
2023-05-21T10:39:22.802Z,46.10
2023-05-21T10:41:36.500Z,46.60
2023-05-21T10:44:07.576Z,47.40
2023-05-21T10:46:43.434Z,47.40
2023-05-21T10:49:05.148Z,47.60
2023-05-21T10:51:32.044Z,47.40
2023-05-21T10:53:56.887Z,47.50
2023-05-21T10:56:16.060Z,47.50
2023-05-21T10:58:58.161Z,47.80
2023-05-21T11:01:06.988Z,47.80
2023-05-21T11:03:16.412Z,48.00
2023-05-21T11:05:44.685Z,48.00
2023-05-21T11:08:02.680Z,48.00
2023-05-21T11:10:39.523Z,48.20
2023-05-21T11:13:17.808Z,48.70
2023-05-21T11:15:25.417Z,48.70
2023-05-21T11:17:45.612Z,48.70
2023-05-21T11:19:53.591Z,48.80
2023-05-21T11:22:00.772Z,49.00
2023-05-21T11:24:12.100Z,49.20
2023-05-21T11:26:22.763Z,49.90
2023-05-21T11:28:37.978Z,50.30
2023-05-21T11:30:45.437Z,50.80
2023-05-21T11:33:28.090Z,50.80
2023-05-21T11:35:39.466Z,51.40
2023-05-21T11:37:47.666Z,51.10
2023-05-21T11:39:54.333Z,51.40
2023-05-21T11:42:04.869Z,51.00
2023-05-21T11:44:13.419Z,50.80
2023-05-21T11:46:21.198Z,51.50
2023-05-21T11:48:30.579Z,54.10
2023-05-21T11:50:40.276Z,55.40
2023-05-21T11:52:48.406Z,56.00
2023-05-21T11:54:58.020Z,56.90
2023-05-21T11:57:09.977Z,56.70
2023-05-21T11:59:20.282Z,55.70
2023-05-21T12:01:28.990Z,55.80
2023-05-21T12:03:39.510Z,55.50
2023-05-21T12:05:50.624Z,58.60
2023-05-21T12:07:58.013Z,60.20
2023-05-21T12:10:05.858Z,60.30
2023-05-21T12:12:16.423Z,60.20
2023-05-21T12:14:24.889Z,60.40
2023-05-21T12:16:32.361Z,60.10
2023-05-21T12:18:42.095Z,60.60
2023-05-21T12:20:49.444Z,61.90
2023-05-21T12:22:57.150Z,62.00
2023-05-21T12:25:04.645Z,62.60
2023-05-21T12:27:14.517Z,63.00
2023-05-21T12:29:22.183Z,63.00
2023-05-21T12:31:30.344Z,62.70
2023-05-21T12:33:39.091Z,61.70
2023-05-21T12:35:50.950Z,60.30
2023-05-21T12:38:00.890Z,58.50
2023-05-21T12:40:10.718Z,57.70
2023-05-21T12:42:20.942Z,58.00
2023-05-21T12:44:33.170Z,59.20
2023-05-21T12:46:41.835Z,59.50
2023-05-21T12:48:58.347Z,59.40
2023-05-21T12:51:06.031Z,59.50
2023-05-21T12:53:14.974Z,58.70
2023-05-21T12:55:22.489Z,57.90
2023-05-21T12:57:39.962Z,57.60
2023-05-21T12:59:54.428Z,57.70
2023-05-21T13:02:01.704Z,58.20
2023-05-21T13:04:10.142Z,58.20
2023-05-21T13:06:17.858Z,58.00
2023-05-21T13:08:25.245Z,58.40
2023-05-21T13:10:32.735Z,58.70
2023-05-21T13:12:43.488Z,59.90
2023-05-21T13:14:51.970Z,60.60
2023-05-21T13:16:59.195Z,61.20
2023-05-21T13:19:06.820Z,60.20
2023-05-21T13:21:14.026Z,60.40
2023-05-21T13:23:22.338Z,60.80
2023-05-21T13:25:31.397Z,61.20
2023-05-21T13:27:40.838Z,60.90
2023-05-21T13:29:47.978Z,60.10
2023-05-21T13:31:55.358Z,58.60
2023-05-21T13:34:04.240Z,57.90
2023-05-21T13:36:13.448Z,56.40
2023-05-21T13:38:21.456Z,56.10
2023-05-21T13:40:29.661Z,55.40
2023-05-21T13:42:38.980Z,54.70
2023-05-21T13:44:50.118Z,54.30
2023-05-21T13:46:57.501Z,53.80
2023-05-21T13:49:05.509Z,53.70
2023-05-21T13:51:17.575Z,53.90
2023-05-21T13:53:30.472Z,54.20
2023-05-21T13:55:38.023Z,53.60
2023-05-21T13:57:45.811Z,53.50
2023-05-21T13:59:55.347Z,52.80
2023-05-21T14:02:03.369Z,52.00
2023-05-21T14:04:10.784Z,52.10
2023-05-21T14:06:18.722Z,52.40
2023-05-21T14:08:27.240Z,52.60
2023-05-21T14:10:35.102Z,52.40
2023-05-21T14:12:43.134Z,52.10
2023-05-21T14:14:50.965Z,52.10
2023-05-21T14:17:00.527Z,52.20
2023-05-21T14:19:08.060Z,52.20
2023-05-21T14:21:15.959Z,52.30
2023-05-21T14:23:23.372Z,52.10
2023-05-21T14:25:31.200Z,52.20
2023-05-21T14:27:39.300Z,51.60
2023-05-21T14:29:46.943Z,51.80
2023-05-21T14:31:54.472Z,52.40
2023-05-21T14:34:04.281Z,52.60
2023-05-21T14:36:11.914Z,52.80
2023-05-21T14:38:19.562Z,52.40
2023-05-21T14:40:26.892Z,52.10
2023-05-21T14:42:34.475Z,52.00
2023-05-21T14:44:42.120Z,52.10
2023-05-21T14:46:49.616Z,52.40
2023-05-21T14:49:00.381Z,52.60
2023-05-21T14:51:09.658Z,52.60
2023-05-21T14:53:17.200Z,52.60
2023-05-21T14:55:25.225Z,52.10
2023-05-21T14:57:32.743Z,51.90
2023-05-21T14:59:40.480Z,51.80
2023-05-21T15:01:48.620Z,52.20
2023-05-21T15:03:58.155Z,52.40
2023-05-21T15:06:05.714Z,52.10
2023-05-21T15:08:15.351Z,52.20
2023-05-21T15:10:23.090Z,52.70
2023-05-21T15:12:31.145Z,52.90
2023-05-21T15:14:38.583Z,53.00
2023-05-21T15:16:46.834Z,53.50
2023-05-21T15:18:54.952Z,53.80
2023-05-21T15:21:02.530Z,53.80
2023-05-21T15:25:23.193Z,54.00
2023-05-21T15:27:31.260Z,53.80
2023-05-21T15:29:38.847Z,54.20
2023-05-21T15:31:46.691Z,54.30
2023-05-21T15:33:54.333Z,54.40
2023-05-21T15:36:02.339Z,54.50
2023-05-21T15:38:10.023Z,54.40
2023-05-21T15:40:18.130Z,54.70
2023-05-21T15:42:27.305Z,54.90
2023-05-21T15:44:35.059Z,55.10
2023-05-21T15:46:42.665Z,55.20
2023-05-21T15:48:50.758Z,55.70
2023-05-21T15:50:58.683Z,55.50
2023-05-21T15:53:07.894Z,55.50
2023-05-21T15:55:15.191Z,55.50
2023-05-21T15:57:23.172Z,55.70
2023-05-21T15:59:32.437Z,55.20
2023-05-21T16:01:39.926Z,55.40
2023-05-21T16:03:47.314Z,55.20
2023-05-21T16:05:54.968Z,55.40
2023-05-21T16:08:02.147Z,55.50
2023-05-21T16:10:12.758Z,55.40
2023-05-21T16:12:20.144Z,55.80
2023-05-21T16:14:27.934Z,56.00
2023-05-21T16:16:37.349Z,56.30
2023-05-21T16:18:45.038Z,56.60
2023-05-21T16:20:52.215Z,56.20
2023-05-21T16:22:59.737Z,56.10
2023-05-21T16:25:07.160Z,57.20
2023-05-21T16:27:15.013Z,58.10
2023-05-21T16:29:22.320Z,59.30
2023-05-21T16:31:30.402Z,58.70
2023-05-21T16:33:39.429Z,58.80
2023-05-21T16:35:47.014Z,58.80
2023-05-21T16:37:54.511Z,58.70
2023-05-21T16:40:02.494Z,58.60
2023-05-21T16:42:10.002Z,58.80
2023-05-21T16:44:17.798Z,58.20
2023-05-21T16:46:25.209Z,57.80
2023-05-21T16:48:34.683Z,58.20
2023-05-21T16:50:45.684Z,58.30
2023-05-21T16:52:53.039Z,58.40
2023-05-21T16:55:00.358Z,59.20
2023-05-21T16:57:08.362Z,59.10
2023-05-21T16:59:15.506Z,59.30
2023-05-21T17:01:23.042Z,59.30
2023-05-21T17:03:30.486Z,59.70
2023-05-21T17:05:39.411Z,59.80
2023-05-21T17:07:48.621Z,60.10
2023-05-21T17:09:56.181Z,60.70
2023-05-21T17:12:03.551Z,60.80
2023-05-21T17:14:13.530Z,60.50
2023-05-21T17:16:26.029Z,60.30
2023-05-21T17:18:34.160Z,60.10
2023-05-21T17:20:41.600Z,60.10
2023-05-21T17:22:50.999Z,60.10
2023-05-21T17:24:59.759Z,60.50
2023-05-21T17:27:07.544Z,60.40
2023-05-21T17:29:14.983Z,60.50
2023-05-21T17:31:23.130Z,60.80
2023-05-21T17:33:31.031Z,60.80
2023-05-21T17:35:38.976Z,61.10
2023-05-21T17:37:46.723Z,61.20
2023-05-21T17:39:56.212Z,61.20
2023-05-21T17:42:03.959Z,61.30
2023-05-21T17:44:12.583Z,61.40
2023-05-21T17:46:19.976Z,61.50
2023-05-21T17:48:27.556Z,61.50
2023-05-21T17:50:35.547Z,61.80
2023-05-21T17:52:43.451Z,62.10
2023-05-21T17:54:51.136Z,62.20
2023-05-21T17:57:00.734Z,62.20
2023-05-21T17:59:09.095Z,62.00
2023-05-21T18:01:16.899Z,62.00
2023-05-21T18:03:24.426Z,61.90
2023-05-21T18:05:32.164Z,61.80
2023-05-21T18:07:40.112Z,61.80
2023-05-21T18:09:47.656Z,61.90
2023-05-21T18:11:55.531Z,62.20
2023-05-21T18:14:05.561Z,62.30
2023-05-21T18:16:13.023Z,62.30
2023-05-21T18:18:21.778Z,62.40
2023-05-21T18:20:29.140Z,62.40
2023-05-21T18:22:37.832Z,62.40
2023-05-21T18:24:45.301Z,62.60
2023-05-21T18:26:53.504Z,62.70
2023-05-21T18:29:02.942Z,62.80
2023-05-21T18:31:10.423Z,63.00
2023-05-21T18:33:18.323Z,63.30
2023-05-21T18:35:25.874Z,63.80
2023-05-21T18:37:33.672Z,64.10
2023-05-21T18:39:41.405Z,64.30
2023-05-21T18:41:51.612Z,64.60
2023-05-21T18:43:59.504Z,64.80
2023-05-21T18:46:08.993Z,65.10
2023-05-21T18:48:16.636Z,65.30
2023-05-21T18:50:24.581Z,65.30
2023-05-21T18:52:31.979Z,65.50
2023-05-21T18:54:39.577Z,65.60
2023-05-21T18:56:46.742Z,65.80
2023-05-21T18:58:54.341Z,65.90
2023-05-21T19:01:01.676Z,66.00
2023-05-21T19:03:11.229Z,66.10
2023-05-21T19:05:18.869Z,66.50
2023-05-21T19:07:26.503Z,66.60
2023-05-21T19:09:33.833Z,66.70
2023-05-21T19:11:41.831Z,66.80
2023-05-21T19:13:49.836Z,66.80
2023-05-21T19:15:59.786Z,67.00
2023-05-21T19:18:07.582Z,67.10
2023-05-21T19:20:27.971Z,67.00
2023-05-21T19:22:35.866Z,67.10
2023-05-21T19:24:46.430Z,66.90
2023-05-21T19:26:54.421Z,66.80
2023-05-21T19:29:05.819Z,67.00
2023-05-21T19:31:16.067Z,66.80
2023-05-21T19:33:24.057Z,66.80
2023-05-21T19:35:33.502Z,66.90
2023-05-21T19:37:41.455Z,67.10
2023-05-21T19:39:51.247Z,67.20
2023-05-21T19:41:59.192Z,67.20
2023-05-21T19:44:06.727Z,67.20
2023-05-21T19:46:17.386Z,67.20
2023-05-21T19:48:26.991Z,67.40
2023-05-21T19:50:36.671Z,67.60
2023-05-21T19:52:44.257Z,67.70
2023-05-21T19:54:52.513Z,67.70
2023-05-21T19:56:59.909Z,67.80
2023-05-21T19:59:09.286Z,67.80
2023-05-21T20:01:17.369Z,67.80
2023-05-21T20:03:26.392Z,67.90
2023-05-21T20:05:35.695Z,67.90
2023-05-21T20:07:43.438Z,67.90
2023-05-21T20:09:51.698Z,68.00
2023-05-21T20:11:59.449Z,68.00
2023-05-21T20:14:06.853Z,68.10
2023-05-21T20:16:15.672Z,68.10
2023-05-21T20:20:47.157Z,67.90
2023-05-21T20:22:54.700Z,68.00
2023-05-21T20:25:04.030Z,68.00
2023-05-21T20:27:14.484Z,67.90
2023-05-21T20:29:27.761Z,67.90
2023-05-21T20:31:35.361Z,67.90
2023-05-21T20:33:43.970Z,68.00
2023-05-21T20:35:53.307Z,68.10
2023-05-21T20:38:03.300Z,68.20
2023-05-21T20:40:14.700Z,68.30
2023-05-21T20:42:23.917Z,68.30
2023-05-21T20:44:31.290Z,68.20
2023-05-21T20:46:40.111Z,68.30
2023-05-21T20:48:51.875Z,68.40
2023-05-21T20:53:24.035Z,68.50
2023-05-21T20:55:36.036Z,68.50
2023-05-21T20:57:43.718Z,68.40
2023-05-21T20:59:52.652Z,68.50
2023-05-21T21:02:00.272Z,68.50
2023-05-21T21:04:08.095Z,68.60
2023-05-21T21:06:20.433Z,68.50
2023-05-21T21:08:31.922Z,68.50
2023-05-21T21:10:40.024Z,68.70
2023-05-21T21:12:47.921Z,68.80
2023-05-21T21:14:55.562Z,69.00
2023-05-21T21:17:03.453Z,69.10
2023-05-21T21:19:22.716Z,69.50
2023-05-21T21:21:35.129Z,69.70
2023-05-21T21:23:42.825Z,70.00
2023-05-21T21:25:50.630Z,69.90
2023-05-21T21:27:58.514Z,70.20
2023-05-21T21:30:06.787Z,70.50
2023-05-21T21:32:14.822Z,70.60
2023-05-21T21:34:24.719Z,71.00
2023-05-21T21:36:34.004Z,70.80
2023-05-21T21:38:53.993Z,70.80
2023-05-21T21:41:14.427Z,71.10
2023-05-21T21:43:24.546Z,71.30
2023-05-21T21:45:32.021Z,71.30
2023-05-21T21:47:39.948Z,71.20
2023-05-21T21:49:49.308Z,71.00
2023-05-21T21:51:59.926Z,71.10
2023-05-21T21:54:07.201Z,71.00
2023-05-21T21:56:15.148Z,70.70
2023-05-21T21:58:22.745Z,70.70
2023-05-21T22:00:30.851Z,70.70
2023-05-21T22:02:38.249Z,70.80
2023-05-21T22:04:46.294Z,70.80
2023-05-21T22:06:54.889Z,70.90
2023-05-21T22:09:04.596Z,71.20
2023-05-21T22:11:13.664Z,71.10
2023-05-21T22:13:21.408Z,71.00
2023-05-21T22:15:30.796Z,71.00
2023-05-21T22:17:39.528Z,70.80
2023-05-21T22:19:46.952Z,70.80
2023-05-21T22:21:55.424Z,71.10
2023-05-21T22:24:05.254Z,71.00
2023-05-21T22:26:13.161Z,70.90
2023-05-21T22:28:22.064Z,70.80
2023-05-21T22:30:29.870Z,70.70
2023-05-21T22:32:38.003Z,70.80
2023-05-21T22:34:46.383Z,70.80
2023-05-21T22:36:54.128Z,70.80
2023-05-21T22:39:05.300Z,71.00
2023-05-21T22:41:13.464Z,71.30
2023-05-21T22:43:21.414Z,71.30
2023-05-21T22:45:29.763Z,71.40
2023-05-21T22:47:38.237Z,71.30
2023-05-21T22:49:46.804Z,71.40
2023-05-21T22:51:55.405Z,71.20
2023-05-21T22:54:04.588Z,71.10
2023-05-21T22:56:12.792Z,71.20
2023-05-21T22:58:20.640Z,71.60
2023-05-21T23:00:28.644Z,71.90
2023-05-21T23:02:36.452Z,72.20
2023-05-21T23:04:44.883Z,72.30
2023-05-21T23:06:52.693Z,72.40
2023-05-21T23:09:01.364Z,72.50
2023-05-21T23:11:10.944Z,72.60
2023-05-21T23:13:19.100Z,72.40
2023-05-21T23:15:26.696Z,72.30
2023-05-21T23:17:34.546Z,72.50
2023-05-21T23:19:42.238Z,72.60
2023-05-21T23:21:50.237Z,72.60
2023-05-21T23:23:58.238Z,72.30
2023-05-21T23:26:06.129Z,72.30
2023-05-21T23:28:15.114Z,72.70
2023-05-21T23:30:22.898Z,72.70
2023-05-21T23:32:31.507Z,72.80
2023-05-21T23:37:00.545Z,72.70
2023-05-21T23:39:08.934Z,72.80
2023-05-21T23:41:16.530Z,72.80
2023-05-21T23:43:26.318Z,72.80
2023-05-21T23:45:34.348Z,72.60
2023-05-21T23:47:42.462Z,72.30
2023-05-21T23:49:50.289Z,71.90
2023-05-21T23:51:58.627Z,71.60
2023-05-21T23:54:06.323Z,71.50
2023-05-21T23:56:14.626Z,71.30
2023-05-21T23:58:22.377Z,71.10
